Terminal Aerodrome Forecast
Issued by NWS

Home | Current Version | Previous Version | Text Only | Print | Product List | Glossary Off
Versions: 1 2 3 4 5 6 7 8 9 10 11 12 13 14 15 16 17 18 19 20 21 22 23 24 25 26 27 28 29 30 31 32 33 34

000
FTUS43 KLOT 261600 AAC
TAFORD
TAF AMD
KORD 261607Z 2616/2718 36012KT 2SM -SHSN BLSN SCT015 OVC020
      TEMPO 2616/2618 3/4SM -SHSN BLSN VV010
     FM261800 36012KT 3SM -SHSN BLSN SCT020 OVC035
     FM261900 35013KT 6SM -SHSN BLSN SCT020 BKN035
     FM262100 34012KT P6SM SCT035
     FM270100 33007KT P6SM FEW040
     FM271500 27009KT P6SM SKC=

USA.gov is the U.S. government's official web portal to all federal, state and local government web resources and services.